Time;durP1;ratioP1;P1;durP2;ratioP2;P2;SDS_P1;SDS_P2;PMS_P1;PMS_P2;Temp;Humidity;BMP_temperature;BMP_pressure;BME280_temperature;BME280_humidity;BME280_pressure;Samples;Min_cycle;Max_cycle;Signal;HPM_P1;HPM_P2
2023/04/24 00:00:17;;;;;;;7.45;4.05;;;11.30;99.90;;;;;;5095691;27;20131;-79
2023/04/24 00:02:47;;;;;;;8.77;4.07;;;11.30;99.90;;;;;;5093937;27;20043;-79
2023/04/24 00:05:14;;;;;;;6.13;3.92;;;11.30;99.90;;;;;;5113560;27;20401;-79
2023/04/24 00:07:41;;;;;;;5.55;4.25;;;11.30;99.90;;;;;;5111595;27;20119;-78
2023/04/24 00:10:07;;;;;;;6.95;4.50;;;11.30;99.90;;;;;;5078933;27;20077;-79
2023/04/24 00:12:33;;;;;;;6.97;4.35;;;11.30;99.90;;;;;;5095438;27;20126;-78
2023/04/24 00:14:59;;;;;;;7.80;4.55;;;11.30;99.90;;;;;;5111482;27;20550;-77
2023/04/24 00:17:25;;;;;;;6.47;4.55;;;11.30;99.90;;;;;;5112655;27;20531;-76
2023/04/24 00:19:51;;;;;;;7.72;5.13;;;11.20;99.90;;;;;;5110956;27;20078;-77
2023/04/24 00:22:17;;;;;;;8.10;4.40;;;11.20;99.90;;;;;;5112637;27;20126;-77
2023/04/24 00:24:43;;;;;;;5.88;4.32;;;11.40;99.90;;;;;;5110295;27;20039;-77
2023/04/24 00:27:09;;;;;;;6.53;4.30;;;11.20;99.90;;;;;;5112097;27;20115;-77
2023/04/24 00:29:34;;;;;;;5.22;3.25;;;11.20;99.90;;;;;;5094203;27;20134;-78
2023/04/24 00:32:00;;;;;;;6.50;3.67;;;11.20;99.90;;;;;;5107524;28;20323;-77
2023/04/24 00:34:29;;;;;;;7.00;3.92;;;11.10;99.90;;;;;;5091894;28;20514;-77
2023/04/24 00:36:55;;;;;;;4.18;3.40;;;11.20;99.90;;;;;;5106945;28;20039;-77
2023/04/24 00:39:21;;;;;;;5.53;3.60;;;11.20;99.90;;;;;;5108773;28;20051;-77
2023/04/24 00:41:48;;;;;;;4.43;3.47;;;11.10;99.90;;;;;;5106444;28;20122;-78
2023/04/24 00:44:14;;;;;;;4.00;3.20;;;11.10;99.90;;;;;;5108410;28;20036;-77
2023/04/24 00:46:40;;;;;;;5.18;2.28;;;11.10;99.90;;;;;;5108446;28;20070;-77
2023/04/24 00:49:06;;;;;;;3.40;2.35;;;11.00;99.90;;;;;;5107604;28;20044;-77
2023/04/24 00:51:32;;;;;;;2.30;1.55;;;11.00;99.90;;;;;;5108066;28;20579;-77
2023/04/24 00:54:01;;;;;;;1.10;1.00;;;11.00;99.90;;;;;;5106747;28;20040;-77
2023/04/24 00:56:28;;;;;;;2.15;0.90;;;11.20;99.90;;;;;;5091492;28;20044;-77
2023/04/24 00:58:54;;;;;;;1.13;0.88;;;10.90;99.90;;;;;;5106733;28;20374;-77
2023/04/24 01:01:21;;;;;;;1.38;0.70;;;10.80;99.90;;;;;;5108163;28;20043;-76
2023/04/24 01:03:49;;;;;;;0.95;0.60;;;10.80;99.90;;;;;;5107197;28;20072;-76
2023/04/24 01:06:15;;;;;;;1.70;0.82;;;10.80;99.90;;;;;;5089875;28;20043;-76
2023/04/24 01:08:42;;;;;;;2.70;0.70;;;11.20;99.90;;;;;;5091173;28;20039;-77
2023/04/24 01:11:07;;;;;;;5.03;0.85;;;10.70;99.90;;;;;;5089291;28;20471;-77
2023/04/24 01:13:33;;;;;;;0.85;0.60;;;10.70;99.90;;;;;;5090795;28;20051;-77
2023/04/24 01:16:00;;;;;;;2.67;0.52;;;10.60;99.90;;;;;;5071936;28;20495;-76
2023/04/24 01:18:27;;;;;;;5.15;0.60;;;10.70;99.90;;;;;;5090869;28;20047;-76
2023/04/24 01:21:04;;;;;;;0.70;0.50;;;10.50;99.90;;;;;;5089698;28;20123;-76
2023/04/24 01:23:29;;;;;;;1.13;0.52;;;10.60;99.90;;;;;;5106412;28;20048;-76
2023/04/24 01:25:55;;;;;;;1.83;0.55;;;10.60;99.90;;;;;;5090855;28;20053;-77
2023/04/24 01:28:21;;;;;;;0.75;0.43;;;10.80;99.90;;;;;;5105766;28;20470;-76
2023/04/24 01:30:48;;;;;;;0.68;0.60;;;10.60;99.90;;;;;;5109667;27;20067;-76
2023/04/24 01:33:14;;;;;;;0.60;0.50;;;10.50;99.90;;;;;;5109192;27;20043;-77
2023/04/24 01:35:40;;;;;;;3.30;0.60;;;10.50;99.90;;;;;;5094096;27;20111;-76
2023/04/24 01:38:05;;;;;;;0.40;0.40;;;10.50;99.90;;;;;;5110527;27;20376;-76
2023/04/24 01:40:32;;;;;;;0.90;0.60;;;10.50;99.90;;;;;;5092679;27;20116;-76
2023/04/24 01:42:58;;;;;;;0.60;0.50;;;10.50;99.90;;;;;;5110618;27;20035;-75
2023/04/24 01:45:24;;;;;;;0.80;0.68;;;10.50;99.90;;;;;;5092474;27;20054;-76
2023/04/24 01:47:50;;;;;;;0.65;0.60;;;10.50;99.90;;;;;;5110913;27;20118;-76
2023/04/24 01:50:16;;;;;;;2.08;0.82;;;10.50;99.90;;;;;;5108805;27;20133;-76
2023/04/24 01:52:42;;;;;;;1.38;0.75;;;10.50;99.90;;;;;;5094138;27;20374;-76
2023/04/24 01:55:08;;;;;;;0.80;0.73;;;10.40;99.90;;;;;;5092857;27;20046;-76
2023/04/24 01:57:35;;;;;;;2.47;0.90;;;10.40;99.90;;;;;;5109424;27;20039;-76
2023/04/24 02:00:04;;;;;;;1.40;1.20;;;10.40;99.90;;;;;;5060401;27;20035;-76
2023/04/24 02:02:30;;;;;;;1.30;1.20;;;10.40;99.90;;;;;;5092288;27;20066;-76
2023/04/24 02:04:56;;;;;;;1.10;1.00;;;10.30;99.90;;;;;;5093528;27;20421;-76
2023/04/24 02:07:22;;;;;;;1.10;1.00;;;10.10;99.90;;;;;;5109114;27;20039;-76
2023/04/24 02:09:48;;;;;;;3.42;1.77;;;10.50;99.90;;;;;;5110451;27;20106;-76
2023/04/24 02:12:15;;;;;;;1.77;1.15;;;10.30;99.90;;;;;;5128195;27;20047;-76
2023/04/24 02:14:42;;;;;;;1.73;1.63;;;10.30;99.90;;;;;;5109237;27;20240;-76
2023/04/24 02:17:08;;;;;;;1.73;1.60;;;10.30;99.90;;;;;;5110184;27;20051;-76
2023/04/24 02:19:33;;;;;;;1.65;1.35;;;10.30;99.90;;;;;;5091537;27;20126;-76
2023/04/24 02:21:59;;;;;;;1.75;1.65;;;10.20;99.90;;;;;;5093122;27;20089;-76
2023/04/24 02:24:25;;;;;;;2.25;1.95;;;10.50;99.90;;;;;;5108050;28;20122;-76
2023/04/24 02:26:50;;;;;;;2.03;1.80;;;10.30;99.90;;;;;;5109895;27;20035;-77
2023/04/24 02:29:16;;;;;;;1.85;1.65;;;10.20;99.90;;;;;;5109004;27;20425;-77
2023/04/24 02:31:42;;;;;;;2.80;1.77;;;10.40;99.90;;;;;;5092107;28;20095;-77
2023/04/24 02:34:08;;;;;;;4.82;2.20;;;10.50;99.90;;;;;;5109551;28;20047;-76
2023/04/24 02:36:34;;;;;;;3.53;2.10;;;10.40;99.90;;;;;;5108392;28;20042;-77
2023/04/24 02:39:00;;;;;;;2.90;2.60;;;10.20;99.90;;;;;;5109871;28;20413;-77
2023/04/24 02:41:31;;;;;;;3.55;3.25;;;10.20;99.90;;;;;;5074526;28;20514;-77
2023/04/24 02:43:57;;;;;;;2.90;2.60;;;10.20;99.90;;;;;;5093097;28;20095;-77
2023/04/24 02:46:23;;;;;;;2.28;2.08;;;11.40;99.90;;;;;;5108644;28;20075;-77
2023/04/24 02:48:49;;;;;;;3.05;2.75;;;10.30;99.90;;;;;;5092588;28;20085;-76
2023/04/24 02:51:14;;;;;;;3.08;2.78;;;10.20;99.90;;;;;;5075563;28;20047;-77
2023/04/24 02:53:40;;;;;;;4.28;3.17;;;11.10;99.90;;;;;;5108205;28;20046;-77
2023/04/24 02:56:06;;;;;;;4.13;3.15;;;10.30;99.90;;;;;;5092704;28;20070;-77
2023/04/24 02:58:32;;;;;;;3.53;3.10;;;10.30;99.90;;;;;;5091021;28;20043;-76
2023/04/24 03:00:57;;;;;;;5.78;3.47;;;10.30;99.90;;;;;;5109952;28;20043;-77
2023/04/24 03:03:23;;;;;;;3.60;3.30;;;10.30;99.90;;;;;;5091570;28;20056;-77
2023/04/24 03:05:50;;;;;;;3.80;3.35;;;10.30;99.90;;;;;;5109123;28;20047;-76
2023/04/24 03:08:16;;;;;;;4.20;3.55;;;10.30;99.90;;;;;;5092349;28;20047;-76
2023/04/24 03:10:41;;;;;;;5.70;4.00;;;10.30;99.90;;;;;;5108187;28;20131;-77
2023/04/24 03:13:07;;;;;;;4.45;3.83;;;10.40;99.90;;;;;;5109683;28;20059;-76
2023/04/24 03:15:33;;;;;;;3.55;3.25;;;10.30;99.90;;;;;;5107537;28;20043;-76
2023/04/24 03:17:58;;;;;;;4.18;3.78;;;10.60;99.90;;;;;;5093242;28;20049;-76
2023/04/24 03:20:24;;;;;;;5.45;4.18;;;10.90;99.90;;;;;;5107977;28;20072;-76
2023/04/24 03:22:50;;;;;;;4.55;3.80;;;10.30;99.90;;;;;;5109340;28;20066;-77
2023/04/24 03:25:16;;;;;;;7.35;5.47;;;10.30;99.90;;;;;;5091944;28;20073;-77
2023/04/24 03:27:41;;;;;;;5.68;4.30;;;10.40;99.90;;;;;;5091403;28;20043;-77
2023/04/24 03:30:08;;;;;;;7.00;4.63;;;10.40;99.90;;;;;;5109110;28;20422;-76
2023/04/24 03:32:34;;;;;;;4.82;4.30;;;10.40;99.90;;;;;;5107452;28;20065;-76
2023/04/24 03:35:00;;;;;;;4.78;4.28;;;10.40;99.90;;;;;;5092970;28;20039;-77
2023/04/24 03:37:26;;;;;;;5.35;4.85;;;10.60;99.90;;;;;;5108498;27;20474;-76
2023/04/24 03:39:52;;;;;;;6.57;5.55;;;10.40;99.90;;;;;;5096146;27;20038;-76
2023/04/24 03:42:18;;;;;;;6.32;5.72;;;10.40;99.90;;;;;;5112884;27;20509;-76
2023/04/24 03:44:43;;;;;;;6.65;5.63;;;10.40;99.90;;;;;;5111841;27;20409;-76
2023/04/24 03:47:09;;;;;;;7.35;6.65;;;10.40;99.90;;;;;;5095729;27;20045;-76
2023/04/24 03:49:35;;;;;;;7.45;6.72;;;11.20;99.90;;;;;;5094420;27;20134;-77
2023/04/24 03:52:01;;;;;;;8.05;7.13;;;10.40;99.90;;;;;;5079204;27;20039;-76
2023/04/24 03:54:26;;;;;;;7.63;6.93;;;10.80;99.90;;;;;;5094719;27;20047;-77
2023/04/24 03:56:52;;;;;;;8.77;7.75;;;10.40;99.90;;;;;;5095726;27;20126;-77
2023/04/24 03:59:18;;;;;;;9.38;8.05;;;10.50;99.90;;;;;;5112212;27;20096;-76
2023/04/24 04:01:45;;;;;;;9.02;8.10;;;10.40;99.90;;;;;;5094990;27;20482;-76
2023/04/24 04:04:10;;;;;;;9.52;8.55;;;10.40;99.90;;;;;;5095530;27;20046;-77
2023/04/24 04:06:36;;;;;;;9.73;8.75;;;10.50;99.90;;;;;;5094191;27;20047;-76
2023/04/24 04:09:03;;;;;;;10.80;8.63;;;10.40;99.90;;;;;;5078828;27;20047;-77
2023/04/24 04:11:29;;;;;;;10.85;8.77;;;10.40;99.90;;;;;;5110485;27;20116;-76
2023/04/24 04:13:55;;;;;;;9.48;8.20;;;10.40;99.90;;;;;;5112227;27;20062;-76
2023/04/24 04:16:21;;;;;;;9.77;8.82;;;10.30;99.90;;;;;;5077531;27;20035;-76
2023/04/24 04:18:46;;;;;;;12.68;9.65;;;10.40;99.90;;;;;;5094465;27;20519;-76
2023/04/24 04:21:12;;;;;;;11.27;8.50;;;10.70;99.90;;;;;;5095091;27;20043;-77
2023/04/24 04:23:38;;;;;;;9.55;8.55;;;9.50;99.90;;;;;;5110756;27;20087;-77
2023/04/24 04:26:04;;;;;;;9.77;8.40;;;10.70;99.90;;;;;;5112121;27;20414;-77
2023/04/24 04:28:32;;;;;;;8.88;7.93;;;10.50;99.90;;;;;;5110638;27;20050;-76
2023/04/24 04:30:58;;;;;;;10.80;9.43;;;10.60;99.90;;;;;;5111967;27;20107;-77
2023/04/24 04:33:25;;;;;;;8.60;7.55;;;10.80;99.90;;;;;;5093913;27;20405;-76
2023/04/24 04:35:56;;;;;;;8.38;7.47;;;10.40;99.90;;;;;;5094186;27;20061;-76
2023/04/24 04:38:22;;;;;;;9.13;8.10;;;10.40;99.90;;;;;;5095110;27;20180;-78
2023/04/24 04:40:48;;;;;;;7.65;6.88;;;10.30;99.90;;;;;;5110521;27;20477;-77
2023/04/24 04:43:14;;;;;;;8.52;7.28;;;10.30;99.90;;;;;;5112186;27;20114;-79
2023/04/24 04:45:42;;;;;;;6.97;6.28;;;10.30;99.90;;;;;;5093596;27;20039;-77
2023/04/24 04:48:09;;;;;;;11.27;6.57;;;10.40;99.90;;;;;;5112370;27;20055;-80
2023/04/24 04:50:38;;;;;;;6.40;5.80;;;10.30;99.90;;;;;;5094040;27;20058;-83
2023/04/24 04:53:04;;;;;;;7.20;6.25;;;10.30;99.90;;;;;;5110685;27;20062;-78
2023/04/24 04:55:30;;;;;;;8.80;5.20;;;10.30;99.90;;;;;;5094747;27;20460;-78
2023/04/24 04:57:56;;;;;;;5.93;5.32;;;10.30;99.90;;;;;;5092878;27;20126;-79
2023/04/24 05:00:24;;;;;;;8.00;6.15;;;11.20;99.90;;;;;;5111813;27;20039;-78
2023/04/24 05:02:49;;;;;;;6.22;5.68;;;10.30;99.90;;;;;;5092732;27;20039;-84
2023/04/24 05:05:16;;;;;;;6.05;5.43;;;11.20;99.90;;;;;;5094485;27;20119;-78
2023/04/24 05:07:42;;;;;;;5.20;4.70;;;10.30;99.90;;;;;;5093257;27;20058;-78
2023/04/24 05:10:08;;;;;;;6.50;4.88;;;10.40;99.90;;;;;;5129101;27;20031;-83
2023/04/24 05:12:34;;;;;;;4.68;4.18;;;10.40;99.90;;;;;;5093970;27;20051;-83
2023/04/24 05:15:00;;;;;;;3.20;2.60;;;10.40;99.90;;;;;;5098177;27;20047;-82
2023/04/24 05:17:26;;;;;;;3.30;3.00;;;10.50;99.90;;;;;;5098468;27;20080;-84
2023/04/24 05:19:51;;;;;;;5.05;3.42;;;10.40;99.90;;;;;;5097755;27;20083;-77
2023/04/24 05:22:19;;;;;;;4.97;3.63;;;10.60;99.90;;;;;;5114367;27;20043;-78
2023/04/24 05:24:45;;;;;;;4.22;3.38;;;10.40;99.90;;;;;;5133249;27;20400;-78
2023/04/24 05:27:11;;;;;;;3.35;2.88;;;10.50;99.90;;;;;;5113535;27;20039;-78
2023/04/24 05:29:37;;;;;;;4.28;3.00;;;10.40;99.90;;;;;;5097908;27;20113;-78
2023/04/24 05:32:02;;;;;;;4.80;3.13;;;10.60;99.90;;;;;;5113083;27;20054;-78
2023/04/24 05:34:28;;;;;;;9.25;5.70;;;10.50;99.90;;;;;;5131372;27;20047;-81
2023/04/24 05:36:54;;;;;;;4.82;2.97;;;10.80;99.90;;;;;;5112869;27;20047;-81
2023/04/24 05:39:20;;;;;;;3.13;2.55;;;10.50;99.90;;;;;;5061957;27;20075;-81
2023/04/24 05:41:46;;;;;;;6.03;3.10;;;11.20;99.90;;;;;;5112976;27;20493;-81
2023/04/24 05:44:11;;;;;;;5.50;2.88;;;10.50;99.90;;;;;;5112077;27;20138;-80
2023/04/24 05:46:37;;;;;;;4.55;3.05;;;10.50;99.90;;;;;;5112761;27;20035;-79
2023/04/24 05:49:03;;;;;;;6.13;3.60;;;10.50;99.90;;;;;;5112215;27;20039;-79
2023/04/24 05:51:28;;;;;;;5.13;3.40;;;10.50;99.90;;;;;;5112233;27;20100;-79
2023/04/24 05:53:54;;;;;;;6.50;3.22;;;10.50;99.90;;;;;;5112805;27;20035;-79
2023/04/24 05:56:20;;;;;;;3.75;2.78;;;10.50;99.90;;;;;;5112264;27;20092;-79
2023/04/24 05:58:46;;;;;;;4.40;3.20;;;10.50;99.90;;;;;;5113363;27;20092;-78
2023/04/24 06:01:16;;;;;;;5.85;2.92;;;10.50;99.90;;;;;;5111252;27;20035;-80
2023/04/24 06:03:42;;;;;;;4.90;3.67;;;10.50;99.90;;;;;;5112554;27;20046;-79
2023/04/24 06:06:08;;;;;;;3.28;2.90;;;10.50;99.90;;;;;;5111964;27;20099;-79
2023/04/24 06:08:35;;;;;;;6.80;3.05;;;10.50;99.90;;;;;;5078436;27;20123;-80
2023/04/24 06:11:00;;;;;;;8.82;3.25;;;10.40;99.90;;;;;;5112206;27;20497;-79
2023/04/24 06:13:26;;;;;;;6.53;2.75;;;10.90;99.90;;;;;;5094891;28;20035;-79
2023/04/24 06:15:52;;;;;;;4.45;3.20;;;10.90;99.90;;;;;;5112916;27;20086;-82
2023/04/24 06:18:18;;;;;;;5.38;2.90;;;11.60;99.90;;;;;;5111400;27;20050;-84
2023/04/24 06:20:45;;;;;;;5.75;3.42;;;10.40;99.90;;;;;;5112851;27;20413;-80
2023/04/24 06:23:11;;;;;;;5.68;3.10;;;10.30;99.90;;;;;;5111654;28;20084;-79
2023/04/24 06:25:38;;;;;;;6.25;3.25;;;10.30;99.90;;;;;;5112158;28;20123;-79
2023/04/24 06:28:04;;;;;;;8.25;4.00;;;10.30;99.90;;;;;;5111997;28;20039;-79
2023/04/24 06:30:30;;;;;;;6.75;3.97;;;10.40;99.90;;;;;;5111492;28;20051;-79
2023/04/24 06:32:56;;;;;;;9.75;3.78;;;10.80;99.90;;;;;;5111356;28;20053;-80
2023/04/24 06:35:22;;;;;;;9.95;3.60;;;10.30;99.90;;;;;;5109419;28;20074;-80
2023/04/24 06:37:48;;;;;;;5.43;2.95;;;10.30;99.90;;;;;;5111046;28;20039;-80
2023/04/24 06:40:13;;;;;;;7.00;2.83;;;10.70;99.90;;;;;;5110612;28;20043;-80
2023/04/24 06:42:39;;;;;;;3.70;3.00;;;10.40;99.90;;;;;;5093214;28;20047;-79
2023/04/24 06:45:05;;;;;;;4.35;3.25;;;10.40;99.90;;;;;;5093712;28;20043;-80
2023/04/24 06:47:31;;;;;;;8.57;3.58;;;10.40;99.90;;;;;;5110023;28;20051;-80
2023/04/24 06:49:57;;;;;;;11.07;3.97;;;10.30;99.90;;;;;;5111271;28;20385;-80
2023/04/24 06:52:23;;;;;;;6.80;3.97;;;10.40;99.90;;;;;;5109609;28;20392;-81
2023/04/24 06:54:49;;;;;;;8.13;2.72;;;10.50;99.90;;;;;;5094142;28;20079;-79
2023/04/24 06:57:16;;;;;;;7.50;3.75;;;10.40;99.90;;;;;;5110477;28;20046;-81
2023/04/24 06:59:42;;;;;;;7.82;2.88;;;10.40;99.90;;;;;;5110171;28;20050;-79
2023/04/24 07:02:08;;;;;;;4.63;1.73;;;10.40;99.90;;;;;;5110776;28;20058;-80
2023/04/24 07:04:33;;;;;;;11.20;2.42;;;10.50;99.90;;;;;;5110129;28;20039;-80
2023/04/24 07:06:59;;;;;;;17.42;3.22;;;10.50;99.90;;;;;;5093951;28;20532;-80
2023/04/24 07:09:26;;;;;;;4.18;1.33;;;10.50;99.90;;;;;;5092266;27;20043;-79
2023/04/24 07:11:53;;;;;;;4.00;1.40;;;10.50;99.90;;;;;;5129567;27;20370;-79
2023/04/24 07:14:20;;;;;;;5.25;1.98;;;10.70;99.90;;;;;;5113541;27;20058;-78
2023/04/24 07:16:46;;;;;;;2.60;1.30;;;10.60;99.90;;;;;;5114265;27;20039;-80
2023/04/24 07:19:13;;;;;;;4.47;1.13;;;10.40;99.90;;;;;;5114427;27;20043;-80
2023/04/24 07:21:38;;;;;;;5.38;1.73;;;10.40;99.90;;;;;;5113782;27;20082;-80
2023/04/24 07:24:04;;;;;;;4.55;1.15;;;10.40;99.90;;;;;;5114957;27;20097;-83
2023/04/24 07:26:31;;;;;;;1.95;1.35;;;10.30;99.90;;;;;;5096880;27;20093;-79
2023/04/24 07:28:56;;;;;;;2.63;1.10;;;10.50;99.90;;;;;;5080826;27;20039;-78
2023/04/24 07:31:22;;;;;;;5.22;1.25;;;10.50;99.90;;;;;;5112960;27;20088;-79
2023/04/24 07:33:48;;;;;;;7.43;0.85;;;10.30;99.90;;;;;;5132752;27;20046;-79
2023/04/24 07:36:18;;;;;;;7.38;2.20;;;10.70;99.90;;;;;;5132494;27;20489;-81
2023/04/24 07:38:48;;;;;;;6.38;1.50;;;10.30;99.90;;;;;;5096230;27;20039;-81
2023/04/24 07:41:14;;;;;;;7.32;1.85;;;10.30;99.90;;;;;;5114256;27;20043;-80
2023/04/24 07:43:39;;;;;;;3.40;1.98;;;10.20;99.90;;;;;;5131266;27;20065;-82
2023/04/24 07:46:06;;;;;;;8.73;1.75;;;10.40;99.90;;;;;;5114205;27;20252;-82
2023/04/24 07:48:32;;;;;;;6.50;1.75;;;10.20;99.90;;;;;;5113061;27;20039;-80
2023/04/24 07:50:58;;;;;;;5.68;1.27;;;10.80;99.90;;;;;;5113227;27;20061;-81
2023/04/24 07:53:24;;;;;;;8.35;1.50;;;10.10;99.90;;;;;;5113543;27;20126;-81
2023/04/24 07:55:49;;;;;;;4.28;1.50;;;10.60;99.90;;;;;;5131589;27;20035;-81
2023/04/24 07:58:15;;;;;;;4.10;1.90;;;10.10;99.90;;;;;;5113693;27;20530;-81
2023/04/24 08:00:41;;;;;;;6.85;2.83;;;10.10;99.90;;;;;;5112714;27;20140;-81
2023/04/24 08:03:06;;;;;;;7.25;3.13;;;10.20;99.90;;;;;;5097298;27;20500;-81
2023/04/24 08:05:32;;;;;;;8.18;4.07;;;10.10;99.90;;;;;;5112587;27;20482;-80
2023/04/24 08:07:58;;;;;;;9.75;4.45;;;10.10;99.90;;;;;;5113488;27;20058;-81
2023/04/24 08:10:25;;;;;;;9.70;4.57;;;10.40;99.90;;;;;;5112953;27;20102;-80
2023/04/24 08:12:51;;;;;;;13.07;4.97;;;10.00;99.90;;;;;;5112487;27;20382;-79
2023/04/24 08:15:17;;;;;;;14.85;5.82;;;10.00;99.90;;;;;;5113369;27;20045;-80
2023/04/24 08:17:42;;;;;;;16.33;7.93;;;10.00;99.90;;;;;;5111824;27;20039;-79
2023/04/24 08:20:13;;;;;;;20.23;9.73;;;10.00;99.90;;;;;;5113755;27;20058;-80
2023/04/24 08:22:43;;;;;;;25.35;12.75;;;9.90;99.90;;;;;;5112454;27;20078;-79
2023/04/24 08:25:10;;;;;;;18.70;10.20;;;10.30;99.90;;;;;;5112862;27;20055;-81
2023/04/24 08:27:36;;;;;;;14.25;9.40;;;9.90;99.90;;;;;;5112703;27;20046;-82
2023/04/24 08:30:03;;;;;;;25.40;10.10;;;10.10;99.90;;;;;;5095249;27;20074;-81
2023/04/24 08:32:29;;;;;;;19.27;9.70;;;9.90;99.90;;;;;;5112860;27;20112;-81
2023/04/24 08:34:59;;;;;;;20.48;10.27;;;10.00;99.90;;;;;;5111494;27;20115;-80
2023/04/24 08:37:26;;;;;;;19.45;8.80;;;10.00;99.90;;;;;;5113216;27;20046;-80
2023/04/24 08:39:52;;;;;;;19.65;9.27;;;10.00;99.90;;;;;;5111801;27;20047;-80
2023/04/24 08:42:19;;;;;;;17.92;9.30;;;9.90;99.90;;;;;;5112235;27;20058;-80
2023/04/24 08:44:45;;;;;;;15.60;8.40;;;10.00;99.90;;;;;;5078681;27;20047;-79
2023/04/24 08:47:11;;;;;;;16.65;9.07;;;9.80;99.90;;;;;;5111982;27;20042;-79
2023/04/24 08:49:38;;;;;;;16.75;7.72;;;9.80;99.90;;;;;;5112779;27;20057;-80
2023/04/24 08:52:05;;;;;;;16.52;7.25;;;9.70;99.90;;;;;;5111025;27;20092;-81
2023/04/24 08:54:33;;;;;;;20.40;8.20;;;9.80;99.90;;;;;;5113014;27;20047;-81
2023/04/24 08:57:06;;;;;;;22.48;7.53;;;9.70;99.90;;;;;;5111451;27;20039;-80
2023/04/24 08:59:32;;;;;;;16.70;6.93;;;9.70;99.90;;;;;;5112083;27;20047;-80
2023/04/24 09:01:58;;;;;;;18.40;8.55;;;9.60;99.90;;;;;;5111978;27;20047;-80
2023/04/24 09:04:24;;;;;;;19.42;7.78;;;9.80;99.90;;;;;;5111673;27;20043;-80
2023/04/24 09:06:55;;;;;;;12.75;7.65;;;9.40;99.90;;;;;;5112810;27;20447;-80
2023/04/24 09:09:22;;;;;;;15.73;7.82;;;9.60;99.90;;;;;;5094208;27;20043;-79
2023/04/24 09:11:50;;;;;;;20.13;8.80;;;9.40;99.90;;;;;;5112330;27;20050;-79
2023/04/24 09:14:16;;;;;;;14.55;8.43;;;9.30;99.90;;;;;;5094201;27;20051;-79
2023/04/24 09:16:42;;;;;;;13.45;7.82;;;9.80;99.90;;;;;;5111923;27;20435;-79
2023/04/24 09:19:08;;;;;;;17.75;7.75;;;9.50;99.90;;;;;;5112144;27;20545;-79
2023/04/24 09:21:35;;;;;;;17.45;7.75;;;9.30;99.90;;;;;;5110778;27;20114;-79
2023/04/24 09:24:03;;;;;;;13.80;7.55;;;9.40;99.90;;;;;;5111955;27;20047;-79
2023/04/24 09:26:34;;;;;;;18.00;6.95;;;9.40;99.90;;;;;;5110444;27;20120;-79
2023/04/24 09:29:00;;;;;;;19.67;7.28;;;9.30;99.90;;;;;;5112216;27;20438;-78
2023/04/24 09:31:28;;;;;;;15.65;6.72;;;9.70;99.90;;;;;;5110867;27;20059;-79
2023/04/24 09:33:59;;;;;;;12.57;6.05;;;10.00;99.90;;;;;;5110937;27;20401;-79
2023/04/24 09:36:33;;;;;;;10.50;5.18;;;9.40;99.90;;;;;;5110917;27;20043;-81
2023/04/24 09:39:01;;;;;;;14.85;5.78;;;9.50;99.90;;;;;;5110218;27;20084;-79
2023/04/24 09:41:28;;;;;;;12.65;6.75;;;9.80;99.90;;;;;;5095403;27;20042;-80
2023/04/24 09:43:55;;;;;;;11.95;6.22;;;10.30;99.90;;;;;;5110750;27;20363;-80
2023/04/24 09:46:22;;;;;;;13.50;5.95;;;10.30;99.90;;;;;;5111392;27;20126;-81
2023/04/24 09:48:47;;;;;;;14.43;6.13;;;10.30;99.90;;;;;;5110966;27;20108;-80
2023/04/24 09:51:15;;;;;;;18.65;5.70;;;9.50;99.90;;;;;;5110633;27;20039;-80
2023/04/24 09:53:46;;;;;;;18.77;5.50;;;10.10;99.90;;;;;;5111395;27;20051;-79
2023/04/24 09:56:14;;;;;;;12.00;4.45;;;9.50;99.90;;;;;;5110399;27;20118;-79
2023/04/24 09:58:40;;;;;;;13.25;4.97;;;9.40;99.90;;;;;;5095512;27;20043;-78
2023/04/24 10:01:06;;;;;;;13.27;5.63;;;9.40;99.90;;;;;;5076711;27;20039;-79
2023/04/24 10:03:33;;;;;;;10.15;3.70;;;9.70;99.90;;;;;;5094611;27;20043;-79
2023/04/24 10:06:08;;;;;;;10.65;3.45;;;10.30;99.90;;;;;;5110736;27;20074;-79
2023/04/24 10:08:35;;;;;;;11.48;4.18;;;9.60;99.90;;;;;;5110493;27;20440;-79
2023/04/24 10:11:01;;;;;;;14.80;4.60;;;9.80;99.90;;;;;;5111309;27;20047;-79
2023/04/24 10:13:28;;;;;;;7.07;3.40;;;9.80;99.90;;;;;;5110070;27;20043;-78
2023/04/24 10:15:56;;;;;;;8.90;2.70;;;10.00;99.90;;;;;;5129914;27;20518;-80
2023/04/24 10:18:22;;;;;;;9.48;3.15;;;10.00;99.90;;;;;;5110149;27;20070;-80
2023/04/24 10:20:48;;;;;;;7.53;3.00;;;10.30;99.90;;;;;;5110623;27;20126;-79
2023/04/24 10:23:14;;;;;;;6.78;2.58;;;10.30;99.90;;;;;;5110860;28;20392;-80
2023/04/24 10:25:40;;;;;;;14.02;2.67;;;10.40;99.90;;;;;;5110195;27;20043;-79
2023/04/24 10:28:06;;;;;;;13.88;3.45;;;10.50;99.90;;;;;;5110880;28;20049;-78
2023/04/24 10:30:37;;;;;;;6.30;2.22;;;10.60;99.90;;;;;;5109483;27;20035;-79
2023/04/24 10:33:05;;;;;;;9.38;2.28;;;10.70;99.90;;;;;;5094627;28;20294;-79
2023/04/24 10:35:34;;;;;;;11.18;2.30;;;11.00;99.90;;;;;;5128437;28;20043;-78
2023/04/24 10:38:07;;;;;;;9.55;2.25;;;11.10;99.90;;;;;;5128698;28;20035;-77
2023/04/24 10:40:35;;;;;;;10.30;2.15;;;11.10;99.90;;;;;;5129376;28;20071;-81
2023/04/24 10:43:07;;;;;;;6.22;2.58;;;11.80;99.90;;;;;;5109624;28;20053;-80
2023/04/24 10:45:33;;;;;;;9.05;1.88;;;11.30;99.90;;;;;;5110998;28;20051;-77
2023/04/24 10:48:10;;;;;;;8.68;1.83;;;11.30;99.90;;;;;;5112978;27;20046;-77
2023/04/24 10:50:53;;;;;;;9.20;1.90;;;11.20;99.90;;;;;;5133264;27;20130;-77
2023/04/24 10:53:22;;;;;;;8.50;1.55;;;11.10;99.90;;;;;;5133194;27;20493;-77
2023/04/24 10:56:06;;;;;;;8.95;2.45;;;11.10;99.90;;;;;;5132155;27;20043;-77
2023/04/24 10:58:52;;;;;;;9.90;2.17;;;11.10;99.90;;;;;;5133926;27;20088;-78
2023/04/24 11:01:24;;;;;;;11.88;2.42;;;11.10;99.90;;;;;;5114063;27;20051;-77
2023/04/24 11:03:56;;;;;;;5.53;1.40;;;11.10;99.90;;;;;;5114429;27;20449;-77
2023/04/24 11:06:35;;;;;;;13.90;2.00;;;11.30;99.90;;;;;;5133444;27;20035;-77
2023/04/24 11:09:09;;;;;;;6.30;1.75;;;11.20;99.90;;;;;;5131616;27;20047;-78
2023/04/24 11:11:40;;;;;;;4.47;1.65;;;11.30;99.90;;;;;;5097823;27;20043;-78
2023/04/24 11:14:09;;;;;;;4.93;1.50;;;11.30;99.90;;;;;;5113555;27;20083;-78
2023/04/24 11:16:54;;;;;;;7.20;1.80;;;11.30;99.90;;;;;;5113811;27;20149;-80
2023/04/24 11:19:24;;;;;;;15.05;3.15;;;11.30;99.90;;;;;;5114213;27;20145;-79
2023/04/24 11:22:04;;;;;;;12.05;1.65;;;11.20;99.90;;;;;;5113103;27;20050;-80
2023/04/24 11:24:39;;;;;;;4.68;1.27;;;11.10;99.90;;;;;;5133073;27;20066;-79
2023/04/24 11:27:24;;;;;;;6.70;1.38;;;10.90;99.90;;;;;;5113704;27;20301;-79
2023/04/24 11:29:55;;;;;;;5.13;1.30;;;10.90;99.90;;;;;;5113420;27;20077;-80
2023/04/24 11:32:33;;;;;;;6.85;1.40;;;10.90;99.90;;;;;;5113903;27;20466;-79
2023/04/24 11:35:06;;;;;;;6.25;1.17;;;10.90;99.90;;;;;;5112694;27;20486;-80
2023/04/24 11:37:36;;;;;;;;;;;10.90;99.90;;;;;;5097466;27;20039;-79
2023/04/24 11:40:03;;;;;;;5.55;1.35;;;10.90;99.90;;;;;;5132347;27;20343;-79
2023/04/24 11:42:44;;;;;;;9.30;2.85;;;10.80;99.90;;;;;;5096454;27;20050;-80
2023/04/24 11:45:12;;;;;;;15.25;1.77;;;10.80;99.90;;;;;;5114442;27;20545;-79
2023/04/24 11:47:38;;;;;;;5.43;1.05;;;10.80;99.90;;;;;;5112426;27;20047;-79
2023/04/24 11:50:07;;;;;;;10.65;1.80;;;10.60;99.90;;;;;;5113949;27;20089;-80
2023/04/24 11:52:36;;;;;;;11.65;0.80;;;10.60;99.90;;;;;;5096220;27;20054;-77
2023/04/24 11:55:03;;;;;;;7.40;1.48;;;10.60;99.90;;;;;;5113334;27;20050;-77
2023/04/24 11:57:34;;;;;;;5.82;1.13;;;10.50;99.90;;;;;;5113930;27;20058;-77
2023/04/24 12:00:01;;;;;;;6.32;1.08;;;10.50;99.90;;;;;;5130332;27;20451;-78
2023/04/24 12:02:27;;;;;;;5.55;1.20;;;10.80;99.90;;;;;;5113660;27;20103;-79
2023/04/24 12:04:54;;;;;;;9.85;1.15;;;10.40;99.90;;;;;;5112096;27;20047;-80
2023/04/24 12:07:21;;;;;;;10.85;0.90;;;10.40;99.90;;;;;;5113910;27;20047;-79
2023/04/24 12:09:48;;;;;;;10.07;1.38;;;10.40;99.90;;;;;;5112546;27;20063;-78
2023/04/24 12:12:18;;;;;;;5.93;1.10;;;10.80;99.90;;;;;;5112413;27;20375;-78
2023/04/24 12:14:45;;;;;;;3.13;1.20;;;10.20;99.90;;;;;;5112909;27;20039;-78
2023/04/24 12:17:10;;;;;;;5.35;1.00;;;10.50;99.90;;;;;;5111460;27;20047;-79
2023/04/24 12:19:36;;;;;;;9.40;1.52;;;10.20;99.90;;;;;;5113136;27;20050;-77
2023/04/24 12:22:05;;;;;;;6.45;1.17;;;10.20;99.90;;;;;;5130442;27;20467;-78
2023/04/24 12:24:31;;;;;;;6.88;0.88;;;10.20;99.90;;;;;;5114149;27;20039;-78
2023/04/24 12:26:57;;;;;;;5.30;1.27;;;10.30;99.90;;;;;;5112575;27;20450;-78
2023/04/24 12:29:24;;;;;;;4.95;0.85;;;10.30;99.90;;;;;;5112616;27;20486;-78
2023/04/24 12:31:54;;;;;;;3.92;0.85;;;10.40;99.90;;;;;;5112676;27;20047;-78
2023/04/24 12:34:21;;;;;;;4.53;0.82;;;10.60;99.90;;;;;;5095337;27;20183;-78
2023/04/24 12:36:48;;;;;;;8.30;0.77;;;10.70;99.90;;;;;;5131849;27;20077;-78
2023/04/24 12:39:20;;;;;;;5.70;1.45;;;10.90;99.90;;;;;;5111785;27;20090;-78
2023/04/24 12:41:59;;;;;;;2.25;0.80;;;11.00;99.90;;;;;;5131675;27;20058;-78
2023/04/24 12:44:34;;;;;;;1.77;0.60;;;11.10;99.90;;;;;;5112726;27;20107;-78